Gabriella — OJHP — position and weather

sailwx.info

Track history (hours):
 
Tides and Currents Weather Stations Pressure Air Temp Water Temp Dewpoint Dewpoint Depression Visibility Wind Speed Wind Dir Waves Ship Positions

Gabriella

Last reported at 2014-Aug-27 16:09 UTC. Time now 2014-Aug-27 19:17 UTC.
Position N 59°27' E 018°26'.

Length 172 m; draft 6.5 m.

Type: Ship (hazmat cat A). MMSI: 230361000.

Date/timePositionNaut miles runAvg speedWind from/ knotsBaromVisibWave heightAir tempDewpointWater temp
2014-Aug-27 16:09N 59°27' E 018°26'7 6.3
2014-Aug-27 15:05N 59°22' E 018°18'611.1
2014-Aug-27 14:33N 59°19' E 018°07'1 0.8
2014-Aug-27 13:33N 59°19' E 018°06'0 0.0
2014-Aug-27 12:30N 59°19' E 018°06'0 0.0
2014-Aug-27 11:33N 59°19' E 018°06'0 0.0
2014-Aug-27 10:33N 59°19' E 018°06'0 0.0
2014-Aug-27 09:33N 59°19' E 018°06'0 0.0
2014-Aug-27 08:33N 59°19' E 018°06'2 2.0
2014-Aug-27 07:33N 59°19' E 018°10'15312.3
2014-Aug-26 19:06N 59°39' E 023°08'1018.8
2014-Aug-26 18:33N 59°41' E 023°28'1918.8
2014-Aug-26 17:34N 59°47' E 024°03'2418.7
2014-Aug-26 16:17N 59°57' E 024°46'1217.2
2014-Aug-26 15:34N 60°08' E 024°59'2 1.9
2014-Aug-26 14:17N 60°10' E 024°58'4 5.5
2014-Aug-26 13:33N 60°06' E 024°59'2719.2
2014-Aug-26 12:10N 59°40' E 024°45'1118.1
2014-Aug-26 11:33N 59°29' E 024°46'2 1.8
2014-Aug-26 10:34N 59°27' E 024°47'1616.1
2014-Aug-26 09:33N 59°44' E 024°48'2018.9
2014-Aug-26 08:31N 60°03' E 024°57'7 7.1
2014-Aug-26 07:30N 60°10' E 024°58'2 1.9
2014-Aug-26 06:33N 60°08' E 024°60'1716.9
2014-Aug-26 05:33N 59°55' E 024°39'1919.1
2014-Aug-26 04:33N 59°47' E 024°04'1919.1
2014-Aug-26 03:33N 59°43' E 023°27'16412.6
2014-Aug-25 14:34N 59°19' E 018°07'1 0.5
2014-Aug-25 13:31N 59°19' E 018°06'0 0.0
2014-Aug-25 12:31N 59°19' E 018°06'0 0.0
2014-Aug-25 11:25N 59°19' E 018°06'0 0.0
2014-Aug-25 10:31N 59°19' E 018°06'0 0.0
2014-Aug-25 09:31N 59°19' E 018°06'0 0.0
2014-Aug-25 08:31N 59°19' E 018°06'15211.4
2014-Aug-24 19:14N 59°38' E 023°03'1318.7
2014-Aug-24 18:33N 59°41' E 023°27'1918.7
2014-Aug-24 17:34N 59°47' E 024°02'2718.6
2014-Aug-24 16:05N 59°58' E 024°51'917.7
2014-Aug-24 15:34N 60°07' E 024°59'3 2.8
2014-Aug-24 14:29N 60°10' E 024°58'4 4.3
2014-Aug-24 13:34N 60°06' E 024°59'2620.6
2014-Aug-24 12:17N 59°41' E 024°45'1418.9
2014-Aug-24 11:34N 59°27' E 024°47'0 0.4
2014-Aug-24 10:33N 59°27' E 024°46'3718.4
2014-Aug-24 08:33N 60°03' E 024°58'7 6.5
2014-Aug-24 07:29N 60°10' E 024°58'2 1.8
2014-Aug-24 06:33N 60°08' E 024°60'2216.9
2014-Aug-24 05:16N 59°52' E 024°30'1318.7
2014-Aug-24 04:33N 59°48' E 024°06'1918.9
2014-Aug-24 03:33N 59°43' E 023°29'3 0.1
2014-Aug-22 18:33N 59°41' E 023°26'1918.7
2014-Aug-22 17:33N 59°46' E 024°01'2518.4
2014-Aug-22 16:11N 59°57' E 024°47'1118.3
2014-Aug-22 15:34N 60°07' E 024°59'3 2.8
2014-Aug-22 14:26N 60°10' E 024°58'4 4.7
2014-Aug-22 13:33N 60°06' E 024°59'2419.3
2014-Aug-22 12:19N 59°43' E 024°47'1519.5
2014-Aug-22 11:33N 59°28' E 024°47'1 0.7
2014-Aug-22 10:33N 59°27' E 024°47'3718.4
2014-Aug-22 08:33N 60°04' E 024°58'6 6.1
2014-Aug-22 07:33N 60°10' E 024°58'2 2.0
2014-Aug-22 06:33N 60°08' E 024°59'1716.2
2014-Aug-22 05:31N 59°55' E 024°39'1818.6
2014-Aug-22 04:34N 59°48' E 024°06'1918.8
2014-Aug-22 03:33N 59°43' E 023°30'16512.7
2014-Aug-21 14:30N 59°19' E 018°07'0 0.5
2014-Aug-21 13:33N 59°19' E 018°06'0 0.0
2014-Aug-21 12:33N 59°19' E 018°06'0 0.0
2014-Aug-21 11:33N 59°19' E 018°06'0 0.0
2014-Aug-21 10:33N 59°19' E 018°06'0 0.0
2014-Aug-21 09:33N 59°19' E 018°06'0 0.0
2014-Aug-21 08:33N 59°19' E 018°06'16311.6
2014-Aug-20 18:33N 59°41' E 023°24'1919.4
2014-Aug-20 17:33N 59°46' E 024°01'2619.4
2014-Aug-20 16:12N 59°57' E 024°48'1218.1
2014-Aug-20 15:33N 60°08' E 024°59'2 2.2
2014-Aug-20 14:31N 60°10' E 024°58'4 4.3
2014-Aug-20 13:33N 60°06' E 024°59'3 0.6
2014-Aug-20 08:30N 60°03' E 024°57'7 7.4
2014-Aug-20 07:31N 60°10' E 024°58'2 1.6
2014-Aug-20 06:34N 60°09' E 024°60'1816.9
2014-Aug-20 05:31N 59°55' E 024°39'1818.9
2014-Aug-20 04:34N 59°48' E 024°05'1919.0
2014-Aug-20 03:33N 59°43' E 023°29'16512.5
2014-Aug-19 14:21N 59°19' E 018°06'0 0.0
2014-Aug-19 13:30N 59°19' E 018°06'0 0.0
2014-Aug-19 12:33N 59°19' E 018°06'0 0.0
2014-Aug-19 11:30N 59°19' E 018°06'0 0.0
2014-Aug-19 10:33N 59°19' E 018°06'0 0.0
2014-Aug-19 09:33N 59°19' E 018°06'0 0.0
2014-Aug-19 08:24N 59°19' E 018°06'15611.8
2014-Aug-18 19:15N 59°40' E 023°10'1216.9
2014-Aug-18 18:33N 59°43' E 023°32'4219.7
2014-Aug-18 16:25N 59°58' E 024°50'1314.3
2014-Aug-18 15:33N 60°10' E 024°58'0 0.0
2014-Aug-18 14:31N 60°10' E 024°58'10 9.4
2014-Aug-18 13:31N 60°00' E 024°57'3 0.6
2014-Aug-18 08:31N 60°03' E 024°58'7 6.7
2014-Aug-18 07:32N 60°10' E 024°58'2 1.6
2014-Aug-18 06:34N 60°09' E 024°60'1916.5
2014-Aug-18 05:24N 59°54' E 024°36'1618.4
2014-Aug-18 04:33N 59°48' E 024°07'1818.5
2014-Aug-18 03:33N 59°42' E 023°32'1918.2
2014-Aug-18 02:30N 59°39' E 022°55'  
Track history (hours):
 
Tides and Currents Weather Stations Pressure Air Temp Water Temp Dewpoint Dewpoint Depression Visibility Wind Speed Wind Dir Waves Ship Positions

Gabriella

Last reported at 2014-Aug-27 16:09 UTC. Time now 2014-Aug-27 19:17 UTC.
Position N 59°27' E 018°26'.

Length 172 m; draft 6.5 m.

Type: Ship (hazmat cat A). MMSI: 230361000.

Date/timePositionNaut miles runAvg speedWind from/ knotsBaromVisibWave heightAir tempDewpointWater temp
2014-Aug-27 16:09N 59°27' E 018°26'7 6.3
2014-Aug-27 15:05N 59°22' E 018°18'611.1
2014-Aug-27 14:33N 59°19' E 018°07'1 0.8
2014-Aug-27 13:33N 59°19' E 018°06'0 0.0
2014-Aug-27 12:30N 59°19' E 018°06'0 0.0
2014-Aug-27 11:33N 59°19' E 018°06'0 0.0
2014-Aug-27 10:33N 59°19' E 018°06'0 0.0
2014-Aug-27 09:33N 59°19' E 018°06'0 0.0
2014-Aug-27 08:33N 59°19' E 018°06'2 2.0
2014-Aug-27 07:33N 59°19' E 018°10'15312.3
2014-Aug-26 19:06N 59°39' E 023°08'1018.8
2014-Aug-26 18:33N 59°41' E 023°28'1918.8
2014-Aug-26 17:34N 59°47' E 024°03'2418.7
2014-Aug-26 16:17N 59°57' E 024°46'1217.2
2014-Aug-26 15:34N 60°08' E 024°59'2 1.9
2014-Aug-26 14:17N 60°10' E 024°58'4 5.5
2014-Aug-26 13:33N 60°06' E 024°59'2719.2
2014-Aug-26 12:10N 59°40' E 024°45'1118.1
2014-Aug-26 11:33N 59°29' E 024°46'2 1.8
2014-Aug-26 10:34N 59°27' E 024°47'1616.1
2014-Aug-26 09:33N 59°44' E 024°48'2018.9
2014-Aug-26 08:31N 60°03' E 024°57'7 7.1
2014-Aug-26 07:30N 60°10' E 024°58'2 1.9
2014-Aug-26 06:33N 60°08' E 024°60'1716.9
2014-Aug-26 05:33N 59°55' E 024°39'1919.1
2014-Aug-26 04:33N 59°47' E 024°04'1919.1
2014-Aug-26 03:33N 59°43' E 023°27'16412.6
2014-Aug-25 14:34N 59°19' E 018°07'1 0.5
2014-Aug-25 13:31N 59°19' E 018°06'0 0.0
2014-Aug-25 12:31N 59°19' E 018°06'0 0.0
2014-Aug-25 11:25N 59°19' E 018°06'0 0.0
2014-Aug-25 10:31N 59°19' E 018°06'0 0.0
2014-Aug-25 09:31N 59°19' E 018°06'0 0.0
2014-Aug-25 08:31N 59°19' E 018°06'15211.4
2014-Aug-24 19:14N 59°38' E 023°03'1318.7
2014-Aug-24 18:33N 59°41' E 023°27'1918.7
2014-Aug-24 17:34N 59°47' E 024°02'2718.6
2014-Aug-24 16:05N 59°58' E 024°51'917.7
2014-Aug-24 15:34N 60°07' E 024°59'3 2.8
2014-Aug-24 14:29N 60°10' E 024°58'4 4.3
2014-Aug-24 13:34N 60°06' E 024°59'2620.6
2014-Aug-24 12:17N 59°41' E 024°45'1418.9
2014-Aug-24 11:34N 59°27' E 024°47'0 0.4
2014-Aug-24 10:33N 59°27' E 024°46'3718.4
2014-Aug-24 08:33N 60°03' E 024°58'7 6.5
2014-Aug-24 07:29N 60°10' E 024°58'2 1.8
2014-Aug-24 06:33N 60°08' E 024°60'2216.9
2014-Aug-24 05:16N 59°52' E 024°30'1318.7
2014-Aug-24 04:33N 59°48' E 024°06'1918.9
2014-Aug-24 03:33N 59°43' E 023°29'3 0.1
2014-Aug-22 18:33N 59°41' E 023°26'1918.7
2014-Aug-22 17:33N 59°46' E 024°01'2518.4
2014-Aug-22 16:11N 59°57' E 024°47'1118.3
2014-Aug-22 15:34N 60°07' E 024°59'3 2.8
2014-Aug-22 14:26N 60°10' E 024°58'4 4.7
2014-Aug-22 13:33N 60°06' E 024°59'2419.3
2014-Aug-22 12:19N 59°43' E 024°47'1519.5
2014-Aug-22 11:33N 59°28' E 024°47'1 0.7
2014-Aug-22 10:33N 59°27' E 024°47'3718.4
2014-Aug-22 08:33N 60°04' E 024°58'6 6.1
2014-Aug-22 07:33N 60°10' E 024°58'2 2.0
2014-Aug-22 06:33N 60°08' E 024°59'1716.2
2014-Aug-22 05:31N 59°55' E 024°39'1818.6
2014-Aug-22 04:34N 59°48' E 024°06'1918.8
2014-Aug-22 03:33N 59°43' E 023°30'16512.7
2014-Aug-21 14:30N 59°19' E 018°07'0 0.5
2014-Aug-21 13:33N 59°19' E 018°06'0 0.0
2014-Aug-21 12:33N 59°19' E 018°06'0 0.0
2014-Aug-21 11:33N 59°19' E 018°06'0 0.0
2014-Aug-21 10:33N 59°19' E 018°06'0 0.0
2014-Aug-21 09:33N 59°19' E 018°06'0 0.0
2014-Aug-21 08:33N 59°19' E 018°06'16311.6
2014-Aug-20 18:33N 59°41' E 023°24'1919.4
2014-Aug-20 17:33N 59°46' E 024°01'2619.4
2014-Aug-20 16:12N 59°57' E 024°48'1218.1
2014-Aug-20 15:33N 60°08' E 024°59'2 2.2
2014-Aug-20 14:31N 60°10' E 024°58'4 4.3
2014-Aug-20 13:33N 60°06' E 024°59'3 0.6
2014-Aug-20 08:30N 60°03' E 024°57'7 7.4
2014-Aug-20 07:31N 60°10' E 024°58'2 1.6
2014-Aug-20 06:34N 60°09' E 024°60'1816.9
2014-Aug-20 05:31N 59°55' E 024°39'1818.9
2014-Aug-20 04:34N 59°48' E 024°05'1919.0
2014-Aug-20 03:33N 59°43' E 023°29'16512.5
2014-Aug-19 14:21N 59°19' E 018°06'0 0.0
2014-Aug-19 13:30N 59°19' E 018°06'0 0.0
2014-Aug-19 12:33N 59°19' E 018°06'0 0.0
2014-Aug-19 11:30N 59°19' E 018°06'0 0.0
2014-Aug-19 10:33N 59°19' E 018°06'0 0.0
2014-Aug-19 09:33N 59°19' E 018°06'0 0.0
2014-Aug-19 08:24N 59°19' E 018°06'15611.8
2014-Aug-18 19:15N 59°40' E 023°10'1216.9
2014-Aug-18 18:33N 59°43' E 023°32'4219.7
2014-Aug-18 16:25N 59°58' E 024°50'1314.3
2014-Aug-18 15:33N 60°10' E 024°58'0 0.0
2014-Aug-18 14:31N 60°10' E 024°58'10 9.4
2014-Aug-18 13:31N 60°00' E 024°57'3 0.6
2014-Aug-18 08:31N 60°03' E 024°58'7 6.7
2014-Aug-18 07:32N 60°10' E 024°58'2 1.6
2014-Aug-18 06:34N 60°09' E 024°60'1916.5
2014-Aug-18 05:24N 59°54' E 024°36'1618.4
2014-Aug-18 04:33N 59°48' E 024°07'1818.5
2014-Aug-18 03:33N 59°42' E 023°32'1918.2
2014-Aug-18 02:30N 59°39' E 022°55'  

Dump ship's entire track history